createdAt,value
2023-04-11T00:01:56.117Z,12.96
2023-04-11T00:04:29.008Z,12.96
2023-04-11T00:07:01.681Z,12.95
2023-04-11T00:09:33.976Z,12.92
2023-04-11T00:12:07.496Z,12.78
2023-04-11T00:14:45.543Z,12.90
2023-04-11T00:17:18.182Z,12.89
2023-04-11T00:19:53.301Z,12.90
2023-04-11T00:22:27.952Z,12.91
2023-04-11T00:25:00.360Z,12.87
2023-04-11T00:27:32.669Z,12.81
2023-04-11T00:30:06.894Z,12.87
2023-04-11T00:32:39.241Z,12.86
2023-04-11T00:35:13.029Z,12.83
2023-04-11T00:37:45.712Z,12.81
2023-04-11T00:40:18.839Z,12.82
2023-04-11T00:42:51.169Z,12.84
2023-04-11T00:45:23.394Z,12.86
2023-04-11T00:47:56.348Z,12.83
2023-04-11T00:50:29.377Z,12.83
2023-04-11T00:53:01.904Z,12.81
2023-04-11T00:55:34.217Z,12.74
2023-04-11T00:58:08.388Z,12.76
2023-04-11T01:00:41.645Z,12.75
2023-04-11T01:03:14.945Z,12.70
2023-04-11T01:05:48.338Z,12.70
2023-04-11T01:08:22.648Z,12.61
2023-04-11T01:10:54.092Z,12.60
2023-04-11T01:13:26.958Z,12.68
2023-04-11T01:15:59.481Z,12.71
2023-04-11T01:18:32.335Z,12.70
2023-04-11T01:21:05.822Z,12.68
2023-04-11T01:23:38.232Z,12.68
2023-04-11T01:26:10.664Z,12.64
2023-04-11T01:28:43.099Z,12.56
2023-04-11T01:31:15.668Z,12.48
2023-04-11T01:33:48.339Z,12.45
2023-04-11T01:36:20.759Z,12.52
2023-04-11T01:38:53.093Z,12.56
2023-04-11T01:41:26.662Z,12.50
2023-04-11T01:43:59.611Z,12.60
2023-04-11T01:46:32.158Z,12.63
2023-04-11T01:49:07.914Z,12.67
2023-04-11T01:51:41.175Z,12.65
2023-04-11T01:54:13.473Z,12.65
2023-04-11T01:56:46.427Z,12.73
2023-04-11T01:59:19.628Z,12.72
2023-04-11T02:01:52.437Z,12.73
2023-04-11T02:04:24.974Z,12.73
2023-04-11T02:06:57.202Z,12.70
2023-04-11T02:09:29.545Z,12.67
2023-04-11T02:12:02.040Z,12.67
2023-04-11T02:14:44.584Z,12.69
2023-04-11T02:17:18.963Z,12.72
2023-04-11T02:19:51.910Z,12.69
2023-04-11T02:22:24.301Z,12.63
2023-04-11T02:24:56.483Z,12.62
2023-04-11T02:27:28.810Z,12.59
2023-04-11T02:30:05.817Z,12.60
2023-04-11T02:32:39.055Z,12.41
2023-04-11T02:35:12.549Z,12.52
2023-04-11T02:37:45.572Z,12.54
2023-04-11T02:40:18.144Z,12.55
2023-04-11T02:42:50.681Z,12.52
2023-04-11T02:45:23.827Z,12.49
2023-04-11T02:47:56.256Z,12.54
2023-04-11T02:50:28.887Z,12.47
2023-04-11T02:53:01.819Z,12.37
2023-04-11T02:55:35.265Z,12.60
2023-04-11T02:58:07.520Z,12.61
2023-04-11T03:00:41.909Z,12.61
2023-04-11T03:03:13.572Z,12.64
2023-04-11T03:05:50.198Z,12.60
2023-04-11T03:08:26.223Z,12.47
2023-04-11T03:10:58.939Z,12.55
2023-04-11T03:13:32.170Z,12.61
2023-04-11T03:16:05.303Z,12.61
2023-04-11T03:18:37.848Z,12.54
2023-04-11T03:21:12.528Z,12.62
2023-04-11T03:23:48.261Z,12.66
2023-04-11T03:26:20.698Z,12.61
2023-04-11T03:28:53.847Z,12.58
2023-04-11T03:31:26.425Z,12.59
2023-04-11T03:33:59.818Z,12.59
2023-04-11T03:36:32.684Z,12.61
2023-04-11T03:39:08.155Z,12.55
2023-04-11T03:41:42.088Z,12.65
2023-04-11T03:44:17.532Z,12.73
2023-04-11T03:46:50.934Z,12.64
2023-04-11T03:49:24.819Z,12.64
2023-04-11T03:52:01.603Z,12.58
2023-04-11T03:54:34.399Z,12.62
2023-04-11T03:57:07.605Z,12.61
2023-04-11T03:59:40.429Z,12.61
2023-04-11T04:02:16.119Z,12.66
2023-04-11T04:04:58.596Z,12.69
2023-04-11T04:07:35.502Z,12.69
2023-04-11T04:10:27.857Z,12.64
2023-04-11T04:13:00.753Z,12.54
2023-04-11T04:15:40.854Z,12.67
2023-04-11T04:18:13.969Z,12.55
2023-04-11T04:20:50.721Z,12.57
2023-04-11T04:23:24.113Z,12.62
2023-04-11T04:26:25.253Z,12.53
2023-04-11T04:29:18.391Z,12.54
2023-04-11T04:31:57.067Z,12.55
2023-04-11T04:34:38.156Z,12.56
2023-04-11T04:37:21.602Z,12.50
2023-04-11T04:39:55.235Z,12.53
2023-04-11T04:42:34.445Z,12.57
2023-04-11T04:45:10.309Z,12.59
2023-04-11T04:47:43.622Z,12.60
2023-04-11T04:50:16.570Z,12.62
2023-04-11T04:52:50.365Z,12.67
2023-04-11T04:55:23.083Z,12.59
2023-04-11T04:57:55.751Z,12.65
2023-04-11T05:00:28.692Z,12.68
2023-04-11T05:03:06.022Z,12.69
2023-04-11T05:05:39.251Z,12.65
2023-04-11T05:08:12.250Z,12.61
2023-04-11T05:10:45.522Z,12.60
2023-04-11T05:13:18.358Z,12.54
2023-04-11T05:15:54.383Z,12.55
2023-04-11T05:18:29.813Z,12.55
2023-04-11T05:21:01.539Z,12.47
2023-04-11T05:23:41.439Z,12.58
2023-04-11T05:26:14.628Z,12.56
2023-04-11T05:28:47.022Z,12.47
2023-04-11T05:31:22.968Z,12.42
2023-04-11T05:33:57.381Z,12.47
2023-04-11T05:36:34.852Z,12.57
2023-04-11T05:39:08.113Z,12.57
2023-04-11T05:41:40.648Z,12.60
2023-04-11T05:44:12.943Z,12.50
2023-04-11T05:46:46.049Z,12.58
2023-04-11T05:49:19.332Z,12.60
2023-04-11T05:51:51.967Z,12.58
2023-04-11T05:54:35.425Z,12.65
2023-04-11T05:57:08.269Z,12.62
2023-04-11T05:59:40.740Z,12.64
2023-04-11T06:02:12.970Z,12.59
2023-04-11T06:04:46.042Z,12.63
2023-04-11T06:07:18.479Z,12.69
2023-04-11T06:09:51.126Z,12.76
2023-04-11T06:12:23.495Z,12.86
2023-04-11T06:14:55.944Z,12.92
2023-04-11T06:17:28.294Z,12.92
2023-04-11T06:20:02.902Z,13.00
2023-04-11T06:22:36.251Z,13.03
2023-04-11T06:25:09.552Z,13.04
2023-04-11T06:27:41.901Z,12.99
2023-04-11T06:30:14.822Z,13.08
2023-04-11T06:32:46.952Z,13.08
2023-04-11T06:35:20.462Z,13.10
2023-04-11T06:37:53.341Z,13.08
2023-04-11T06:40:25.830Z,13.06
2023-04-11T06:43:00.444Z,13.22
2023-04-11T06:45:32.613Z,13.27
2023-04-11T06:48:05.141Z,13.27
2023-04-11T06:50:41.156Z,13.25
2023-04-11T06:53:13.411Z,13.22
2023-04-11T06:55:49.051Z,13.14
2023-04-11T06:58:21.485Z,13.17
2023-04-11T07:00:53.747Z,13.20
2023-04-11T07:03:26.555Z,13.33
2023-04-11T07:05:58.794Z,13.31
2023-04-11T07:08:31.745Z,13.33
2023-04-11T07:11:04.563Z,13.40
2023-04-11T07:13:36.807Z,13.51
2023-04-11T07:16:10.701Z,13.41
2023-04-11T07:18:43.145Z,13.53
2023-04-11T07:21:18.187Z,13.60
2023-04-11T07:23:52.809Z,13.67
2023-04-11T07:26:24.174Z,13.61
2023-04-11T07:28:56.819Z,13.76
2023-04-11T07:31:28.885Z,13.84
2023-04-11T07:34:01.358Z,13.90
2023-04-11T07:36:34.410Z,13.91
2023-04-11T07:39:09.488Z,13.86
2023-04-11T07:41:42.064Z,14.04
2023-04-11T07:44:14.314Z,14.08
2023-04-11T07:46:46.494Z,14.12
2023-04-11T07:49:18.714Z,14.19
2023-04-11T07:51:51.126Z,14.11
2023-04-11T07:54:25.297Z,14.13
2023-04-11T07:56:58.111Z,14.17
2023-04-11T07:59:30.300Z,14.13
2023-04-11T08:02:04.509Z,14.20
2023-04-11T08:04:38.394Z,14.15
2023-04-11T08:07:11.529Z,14.30
2023-04-11T08:09:44.050Z,14.23
2023-04-11T08:12:16.917Z,14.28
2023-04-11T08:14:49.068Z,14.17
2023-04-11T08:17:28.183Z,14.28
2023-04-11T08:20:02.285Z,14.37
2023-04-11T08:22:35.638Z,14.41
2023-04-11T08:25:09.911Z,14.49
2023-04-11T08:27:42.490Z,14.48
2023-04-11T08:30:16.461Z,14.48
2023-04-11T08:32:48.612Z,14.51
2023-04-11T08:35:21.059Z,14.72
2023-04-11T08:37:53.808Z,14.68
2023-04-11T08:40:27.152Z,14.62
2023-04-11T08:43:02.882Z,14.74
2023-04-11T08:45:35.214Z,14.81
2023-04-11T08:48:07.991Z,14.75
2023-04-11T08:50:41.769Z,14.83
2023-04-11T08:53:15.843Z,14.83
2023-04-11T08:55:51.700Z,14.75
2023-04-11T08:58:23.965Z,14.83
2023-04-11T09:00:56.467Z,14.89
2023-04-11T09:03:28.766Z,14.89
2023-04-11T09:06:12.129Z,14.70
2023-04-11T09:08:44.476Z,14.67
2023-04-11T09:11:16.762Z,14.65
2023-04-11T09:13:49.429Z,14.61
2023-04-11T09:16:22.091Z,14.62
2023-04-11T09:18:54.525Z,14.60
2023-04-11T09:21:28.179Z,14.76
2023-04-11T09:24:16.562Z,14.89
2023-04-11T09:26:49.001Z,14.97
2023-04-11T09:29:39.060Z,15.12
2023-04-11T09:32:32.445Z,15.13
2023-04-11T09:35:16.797Z,15.09
2023-04-11T09:37:52.246Z,15.12
2023-04-11T09:40:27.056Z,15.17
2023-04-11T09:43:01.745Z,15.21
2023-04-11T09:45:44.234Z,15.21
2023-04-11T09:48:39.515Z,15.18
2023-04-11T09:51:34.296Z,15.32
2023-04-11T09:54:08.233Z,15.26
2023-04-11T09:56:40.715Z,15.22
2023-04-11T09:59:13.766Z,15.25
2023-04-11T10:01:47.175Z,15.33
2023-04-11T10:04:20.661Z,15.45
2023-04-11T10:07:02.349Z,15.47
2023-04-11T10:09:38.871Z,15.64
2023-04-11T10:12:11.004Z,15.63
2023-04-11T10:14:47.136Z,15.60
2023-04-11T10:17:23.986Z,15.62
2023-04-11T10:19:58.930Z,15.59
2023-04-11T10:23:02.047Z,15.52
2023-04-11T10:25:49.087Z,15.47
2023-04-11T10:28:38.874Z,15.44
2023-04-11T10:31:14.420Z,15.75
2023-04-11T10:34:16.110Z,15.76
2023-04-11T10:37:05.124Z,15.89
2023-04-11T10:40:10.478Z,15.80
2023-04-11T10:42:44.469Z,15.56
2023-04-11T10:45:27.667Z,15.39
2023-04-11T10:48:13.613Z,15.37
2023-04-11T10:50:46.746Z,15.09
2023-04-11T10:53:38.577Z,14.98
2023-04-11T10:56:10.753Z,14.69
2023-04-11T10:58:43.085Z,14.51
2023-04-11T11:01:32.379Z,14.45
2023-04-11T11:04:10.828Z,14.14
2023-04-11T11:06:51.114Z,13.83
2023-04-11T11:09:28.804Z,14.02
2023-04-11T11:12:12.160Z,13.59
2023-04-11T11:14:46.062Z,13.62
2023-04-11T11:17:19.908Z,13.67
2023-04-11T11:19:52.549Z,13.85
2023-04-11T11:22:26.457Z,13.87
2023-04-11T11:25:10.452Z,13.93
2023-04-11T11:27:42.655Z,13.76
2023-04-11T11:30:16.808Z,13.49
2023-04-11T11:32:48.888Z,13.39
2023-04-11T11:35:21.770Z,13.28
2023-04-11T11:37:55.065Z,13.32
2023-04-11T11:40:28.681Z,13.06
2023-04-11T11:43:01.008Z,12.95
2023-04-11T11:45:33.625Z,12.92
2023-04-11T11:48:06.029Z,12.46
2023-04-11T11:50:39.119Z,12.92
2023-04-11T11:53:17.768Z,12.97
2023-04-11T11:55:50.072Z,12.85
2023-04-11T11:58:23.049Z,12.67
2023-04-11T12:00:55.827Z,12.71
2023-04-11T12:03:29.770Z,12.86
2023-04-11T12:06:02.260Z,12.90
2023-04-11T12:08:41.536Z,12.95
2023-04-11T12:11:15.848Z,13.16
2023-04-11T12:13:52.840Z,13.36
2023-04-11T12:16:28.243Z,13.43
2023-04-11T12:19:03.512Z,13.52
2023-04-11T12:21:36.397Z,13.37
2023-04-11T12:24:10.807Z,13.20
2023-04-11T12:26:57.383Z,13.20
2023-04-11T12:29:35.008Z,12.93
2023-04-11T12:32:07.360Z,12.96
2023-04-11T12:34:39.842Z,12.92
2023-04-11T12:37:12.098Z,12.84
2023-04-11T12:39:44.268Z,12.61
2023-04-11T12:42:18.649Z,12.70
2023-04-11T12:44:53.148Z,12.37
2023-04-11T12:47:25.440Z,11.94
2023-04-11T12:49:58.062Z,12.33
2023-04-11T12:52:30.702Z,12.79
2023-04-11T12:55:03.824Z,12.83
2023-04-11T12:57:37.172Z,12.48
2023-04-11T13:00:13.480Z,11.97
2023-04-11T13:02:45.893Z,11.98
2023-04-11T13:05:19.893Z,12.31
2023-04-11T13:07:52.188Z,12.29
2023-04-11T13:10:25.334Z,12.38
2023-04-11T13:13:00.656Z,12.45
2023-04-11T13:15:38.545Z,12.45
2023-04-11T13:18:11.221Z,12.49
2023-04-11T13:20:43.549Z,12.42
2023-04-11T13:23:17.337Z,12.43
2023-04-11T13:25:50.163Z,12.50
2023-04-11T13:28:22.510Z,12.40
2023-04-11T13:30:54.538Z,12.35
2023-04-11T13:33:27.301Z,12.40
2023-04-11T13:35:59.812Z,12.39
2023-04-11T13:38:32.225Z,12.49
2023-04-11T13:41:04.744Z,12.60
2023-04-11T13:43:36.962Z,12.65
2023-04-11T13:46:09.612Z,12.60
2023-04-11T13:48:41.970Z,12.62
2023-04-11T13:51:14.906Z,12.52
2023-04-11T13:53:47.457Z,12.38
2023-04-11T13:56:20.619Z,12.57
2023-04-11T13:58:52.772Z,12.60
2023-04-11T14:01:25.224Z,12.58
2023-04-11T14:03:57.981Z,12.58
2023-04-11T14:06:30.426Z,12.56
2023-04-11T14:09:05.315Z,12.55
2023-04-11T14:11:36.154Z,12.49
2023-04-11T14:14:08.437Z,12.47
2023-04-11T14:16:40.791Z,12.49
2023-04-11T14:19:13.310Z,12.52
2023-04-11T14:21:46.558Z,12.53
2023-04-11T14:24:22.424Z,12.53
2023-04-11T14:26:54.913Z,12.52
2023-04-11T14:29:27.297Z,12.55
2023-04-11T14:31:59.631Z,12.53
2023-04-11T14:34:32.028Z,12.65
2023-04-11T14:37:04.599Z,12.64
2023-04-11T14:39:39.057Z,12.58
2023-04-11T14:42:11.303Z,12.52
2023-04-11T14:44:43.792Z,12.53
2023-04-11T14:47:16.265Z,12.58
2023-04-11T14:49:48.567Z,12.58
2023-04-11T14:52:21.163Z,12.54
2023-04-11T14:54:53.832Z,12.56
2023-04-11T14:57:26.487Z,12.43
2023-04-11T15:00:01.807Z,12.44
2023-04-11T15:02:34.144Z,12.53
2023-04-11T15:05:08.385Z,12.48
2023-04-11T15:07:40.589Z,12.38
2023-04-11T15:10:13.596Z,12.39
2023-04-11T15:12:45.740Z,12.46
2023-04-11T15:15:18.250Z,12.54
2023-04-11T15:18:11.168Z,12.57
2023-04-11T15:20:43.477Z,12.62
2023-04-11T15:23:15.904Z,12.68
2023-04-11T15:25:53.236Z,12.76
2023-04-11T15:28:26.700Z,12.76
2023-04-11T15:30:59.406Z,12.72
2023-04-11T15:33:32.483Z,12.84
2023-04-11T15:36:05.627Z,12.88
2023-04-11T15:38:38.182Z,12.95
2023-04-11T15:41:10.762Z,12.99
2023-04-11T15:43:42.909Z,13.05
2023-04-11T15:46:16.267Z,13.00
2023-04-11T15:48:48.499Z,13.07
2023-04-11T15:51:20.861Z,13.01
2023-04-11T15:55:04.501Z,13.16
2023-04-11T16:02:34.140Z,13.19
2023-04-11T16:05:07.982Z,13.24
2023-04-11T16:07:40.806Z,13.25
2023-04-11T16:10:13.411Z,13.27
2023-04-11T16:12:45.773Z,13.24
2023-04-11T16:15:19.148Z,13.18
2023-04-11T16:17:51.615Z,13.14
2023-04-11T16:20:24.346Z,13.04
2023-04-11T16:22:56.540Z,13.04
2023-04-11T16:25:29.235Z,13.01
2023-04-11T16:28:01.614Z,12.83
2023-04-11T16:30:33.914Z,12.89
2023-04-11T16:33:07.082Z,12.92
2023-04-11T16:35:39.980Z,12.78
2023-04-11T16:38:12.152Z,12.91
2023-04-11T16:40:44.821Z,12.95
2023-04-11T16:43:17.199Z,12.94
2023-04-11T16:45:49.359Z,12.87
2023-04-11T16:48:21.792Z,12.83
2023-04-11T16:50:53.920Z,12.69
2023-04-11T16:53:26.107Z,12.80
2023-04-11T16:55:59.475Z,12.93
2023-04-11T16:58:32.380Z,12.92
2023-04-11T17:01:04.965Z,12.74
2023-04-11T17:03:37.932Z,12.81
2023-04-11T17:06:15.489Z,12.64
2023-04-11T17:08:47.915Z,12.50
2023-04-11T17:11:20.464Z,12.50
2023-04-11T17:13:54.869Z,12.63
2023-04-11T17:16:27.421Z,12.23
2023-04-11T17:18:59.604Z,12.17
2023-04-11T17:21:31.989Z,12.27
2023-04-11T17:24:05.089Z,12.19
2023-04-11T17:26:37.450Z,12.44
2023-04-11T17:29:11.186Z,12.44
2023-04-11T17:31:43.443Z,12.44
2023-04-11T17:34:16.168Z,12.15
2023-04-11T17:36:48.727Z,12.05
2023-04-11T17:39:21.421Z,12.04
2023-04-11T17:41:53.751Z,12.00
2023-04-11T17:44:26.070Z,11.91
2023-04-11T17:46:58.452Z,12.00
2023-04-11T17:49:30.872Z,11.99
2023-04-11T17:52:03.305Z,11.75
2023-04-11T17:54:36.181Z,11.58
2023-04-11T17:57:08.496Z,11.39
2023-04-11T17:59:40.931Z,11.15
2023-04-11T18:02:13.327Z,11.14
2023-04-11T18:04:46.644Z,11.01
2023-04-11T18:07:19.155Z,11.14
2023-04-11T18:09:51.627Z,11.09
2023-04-11T18:12:29.796Z,11.13
2023-04-11T18:15:02.582Z,11.10
2023-04-11T18:17:35.954Z,11.13
2023-04-11T18:20:11.025Z,11.29
2023-04-11T18:22:45.615Z,11.45
2023-04-11T18:25:18.284Z,11.42
2023-04-11T18:27:50.632Z,11.56
2023-04-11T18:30:22.871Z,11.51
2023-04-11T18:32:55.794Z,11.32
2023-04-11T18:35:28.847Z,11.14
2023-04-11T18:38:02.589Z,11.10
2023-04-11T18:40:35.413Z,11.14
2023-04-11T18:43:08.260Z,11.01
2023-04-11T18:45:42.246Z,11.03
2023-04-11T18:48:15.223Z,11.25
2023-04-11T18:50:48.854Z,11.21
2023-04-11T18:53:21.201Z,11.25
2023-04-11T18:55:54.520Z,10.83
2023-04-11T18:58:29.512Z,10.93
2023-04-11T19:01:14.700Z,11.01
2023-04-11T19:03:49.280Z,11.26
2023-04-11T19:06:22.384Z,11.13
2023-04-11T19:08:55.202Z,11.14
2023-04-11T19:11:27.939Z,11.18
2023-04-11T19:14:01.526Z,10.98
2023-04-11T19:16:34.304Z,11.04
2023-04-11T19:19:06.827Z,11.04
2023-04-11T19:21:39.006Z,11.16
2023-04-11T19:24:11.473Z,11.33
2023-04-11T19:26:43.864Z,11.33
2023-04-11T19:29:17.650Z,11.07
2023-04-11T19:31:51.350Z,11.26
2023-04-11T19:34:23.556Z,11.20
2023-04-11T19:36:56.320Z,11.22
2023-04-11T19:39:35.563Z,11.11
2023-04-11T19:42:10.252Z,11.18
2023-04-11T19:44:42.666Z,11.11
2023-04-11T19:47:15.666Z,11.20
2023-04-11T19:49:48.101Z,11.18
2023-04-11T19:52:20.267Z,11.20
2023-04-11T19:54:52.967Z,11.27
2023-04-11T19:57:27.637Z,11.08
2023-04-11T19:59:58.419Z,10.89
2023-04-11T20:02:30.782Z,11.18
2023-04-11T20:05:03.144Z,10.72
2023-04-11T20:07:39.126Z,10.74
2023-04-11T20:10:13.902Z,10.90
2023-04-11T20:12:46.787Z,10.72
2023-04-11T20:15:19.017Z,10.80
2023-04-11T20:17:51.285Z,10.69
2023-04-11T20:20:27.925Z,10.65
2023-04-11T20:23:05.043Z,10.83
2023-04-11T20:25:37.662Z,10.80
2023-04-11T20:28:10.765Z,10.74
2023-04-11T20:30:43.300Z,10.74
2023-04-11T20:33:15.827Z,10.76
2023-04-11T20:35:52.565Z,10.70
2023-04-11T20:38:26.521Z,10.73
2023-04-11T20:41:03.604Z,10.78
2023-04-11T20:43:37.726Z,10.71
2023-04-11T20:46:13.491Z,10.73
2023-04-11T20:48:46.146Z,10.69
2023-04-11T20:51:18.692Z,10.58
2023-04-11T20:53:51.125Z,10.72
2023-04-11T20:56:23.752Z,10.63
2023-04-11T20:58:56.180Z,10.53
2023-04-11T21:01:32.468Z,10.68
2023-04-11T21:04:05.111Z,10.68
2023-04-11T21:06:37.612Z,10.79
2023-04-11T21:09:10.821Z,10.62
2023-04-11T21:11:43.582Z,10.69
2023-04-11T21:14:16.126Z,10.73
2023-04-11T21:16:50.073Z,10.62
2023-04-11T21:19:22.368Z,10.51
2023-04-11T21:21:54.486Z,10.42
2023-04-11T21:24:27.235Z,10.22
2023-04-11T21:26:59.519Z,10.40
2023-04-11T21:29:31.896Z,10.18
2023-04-11T21:32:03.975Z,10.01
2023-04-11T21:34:36.329Z,10.26
2023-04-11T21:37:08.413Z,10.21
2023-04-11T21:39:40.837Z,10.12
2023-04-11T21:42:13.330Z,10.27
2023-04-11T21:44:45.711Z,10.19
2023-04-11T21:47:18.156Z,10.14
2023-04-11T21:49:50.520Z,10.04
2023-04-11T21:52:22.589Z,10.03
2023-04-11T21:54:54.756Z,9.78
2023-04-11T21:57:27.133Z,9.78
2023-04-11T21:59:59.444Z,10.10
2023-04-11T22:02:32.046Z,10.19
2023-04-11T22:05:07.272Z,10.25
2023-04-11T22:07:47.539Z,10.22
2023-04-11T22:10:32.431Z,10.21
2023-04-11T22:13:10.433Z,10.22
2023-04-11T22:15:42.916Z,10.28
2023-04-11T22:18:16.077Z,10.35
2023-04-11T22:20:48.717Z,10.35
2023-04-11T22:23:21.694Z,10.28
2023-04-11T22:25:59.412Z,10.41
2023-04-11T22:28:33.298Z,10.37
2023-04-11T22:31:05.745Z,10.16
2023-04-11T22:33:38.010Z,10.30
2023-04-11T22:36:12.329Z,10.50
2023-04-11T22:38:45.647Z,10.54
2023-04-11T22:41:22.138Z,10.47
2023-04-11T22:43:54.953Z,10.55
2023-04-11T22:46:27.592Z,10.38
2023-04-11T22:48:59.897Z,10.40
2023-04-11T22:51:32.690Z,10.38
2023-04-11T22:54:05.152Z,10.40
2023-04-11T22:56:37.429Z,10.40
2023-04-11T22:59:09.736Z,10.35
2023-04-11T23:01:44.844Z,10.29
2023-04-11T23:04:17.244Z,10.29
2023-04-11T23:06:51.322Z,10.35
2023-04-11T23:09:23.979Z,10.37
2023-04-11T23:11:56.622Z,10.42
2023-04-11T23:14:31.496Z,10.43
2023-04-11T23:17:02.328Z,10.41
2023-04-11T23:19:35.344Z,10.43
2023-04-11T23:22:07.809Z,10.43
2023-04-11T23:24:40.117Z,10.48
2023-04-11T23:27:12.425Z,10.54
2023-04-11T23:29:49.342Z,10.49
2023-04-11T23:32:22.434Z,10.39
2023-04-11T23:34:54.637Z,10.35
2023-04-11T23:37:27.533Z,10.43
2023-04-11T23:40:00.326Z,10.44
2023-04-11T23:42:33.007Z,10.42
2023-04-11T23:45:06.113Z,10.19
2023-04-11T23:47:39.056Z,10.08
2023-04-11T23:50:13.848Z,10.25
2023-04-11T23:52:44.820Z,10.01
2023-04-11T23:55:17.232Z,9.88
2023-04-11T23:57:49.719Z,9.88
